sensor_id;sensor_type;location;lat;lon;timestamp;temperature;humidity
46976;DHT22;32724;51.094;6.996;2023-05-07T00:00:45;14.20;99.90
46976;DHT22;32724;51.094;6.996;2023-05-07T00:03:11;14.20;99.90
46976;DHT22;32724;51.094;6.996;2023-05-07T00:05:39;14.20;99.90
46976;DHT22;32724;51.094;6.996;2023-05-07T00:08:04;14.20;99.90
46976;DHT22;32724;51.094;6.996;2023-05-07T00:10:30;14.20;99.90
46976;DHT22;32724;51.094;6.996;2023-05-07T00:12:55;14.20;99.90
46976;DHT22;32724;51.094;6.996;2023-05-07T00:15:21;14.10;99.90
46976;DHT22;32724;51.094;6.996;2023-05-07T00:17:46;14.10;99.90
46976;DHT22;32724;51.094;6.996;2023-05-07T00:20:12;14.20;99.90
46976;DHT22;32724;51.094;6.996;2023-05-07T00:22:37;14.20;99.90
46976;DHT22;32724;51.094;6.996;2023-05-07T00:25:03;14.10;99.90
46976;DHT22;32724;51.094;6.996;2023-05-07T00:27:28;14.10;99.90
46976;DHT22;32724;51.094;6.996;2023-05-07T00:29:54;14.10;99.90
46976;DHT22;32724;51.094;6.996;2023-05-07T00:32:19;14.10;99.90
46976;DHT22;32724;51.094;6.996;2023-05-07T00:34:45;14.10;99.90
46976;DHT22;32724;51.094;6.996;2023-05-07T00:37:10;14.10;99.90
46976;DHT22;32724;51.094;6.996;2023-05-07T00:39:37;14.10;99.90
46976;DHT22;32724;51.094;6.996;2023-05-07T00:42:02;14.10;99.90
46976;DHT22;32724;51.094;6.996;2023-05-07T00:44:28;14.10;99.90
46976;DHT22;32724;51.094;6.996;2023-05-07T00:46:55;14.10;99.90
46976;DHT22;32724;51.094;6.996;2023-05-07T00:49:21;14.10;99.90
46976;DHT22;32724;51.094;6.996;2023-05-07T00:51:47;14.00;99.90
46976;DHT22;32724;51.094;6.996;2023-05-07T00:54:12;14.00;99.90
46976;DHT22;32724;51.094;6.996;2023-05-07T00:56:38;14.00;99.90
46976;DHT22;32724;51.094;6.996;2023-05-07T00:59:05;14.00;99.90
46976;DHT22;32724;51.094;6.996;2023-05-07T01:01:31;13.90;99.90
46976;DHT22;32724;51.094;6.996;2023-05-07T01:03:56;13.90;99.90
46976;DHT22;32724;51.094;6.996;2023-05-07T01:06:23;13.90;99.90
46976;DHT22;32724;51.094;6.996;2023-05-07T01:08:50;13.90;99.90
46976;DHT22;32724;51.094;6.996;2023-05-07T01:11:18;13.90;99.90
46976;DHT22;32724;51.094;6.996;2023-05-07T01:13:45;14.00;99.90
46976;DHT22;32724;51.094;6.996;2023-05-07T01:16:11;14.00;99.90
46976;DHT22;32724;51.094;6.996;2023-05-07T01:18:37;14.10;99.90
46976;DHT22;32724;51.094;6.996;2023-05-07T01:21:03;14.10;99.90
46976;DHT22;32724;51.094;6.996;2023-05-07T01:23:29;14.20;99.90
46976;DHT22;32724;51.094;6.996;2023-05-07T01:25:55;14.20;99.90
46976;DHT22;32724;51.094;6.996;2023-05-07T01:28:21;14.20;99.90
46976;DHT22;32724;51.094;6.996;2023-05-07T01:30:47;14.10;99.90
46976;DHT22;32724;51.094;6.996;2023-05-07T01:33:13;14.10;99.90
46976;DHT22;32724;51.094;6.996;2023-05-07T01:35:41;14.10;99.90
46976;DHT22;32724;51.094;6.996;2023-05-07T01:38:08;14.00;99.90
46976;DHT22;32724;51.094;6.996;2023-05-07T01:40:33;14.00;99.90
46976;DHT22;32724;51.094;6.996;2023-05-07T01:43:00;14.00;99.90
46976;DHT22;32724;51.094;6.996;2023-05-07T01:45:25;13.90;99.90
46976;DHT22;32724;51.094;6.996;2023-05-07T01:47:51;13.90;99.90
46976;DHT22;32724;51.094;6.996;2023-05-07T01:50:18;13.90;99.90
46976;DHT22;32724;51.094;6.996;2023-05-07T01:52:44;13.80;99.90
46976;DHT22;32724;51.094;6.996;2023-05-07T01:55:10;13.90;99.90
46976;DHT22;32724;51.094;6.996;2023-05-07T01:57:36;13.80;99.90
46976;DHT22;32724;51.094;6.996;2023-05-07T02:00:01;13.80;99.90
46976;DHT22;32724;51.094;6.996;2023-05-07T02:02:31;13.80;99.90
46976;DHT22;32724;51.094;6.996;2023-05-07T02:04:56;13.80;99.90
46976;DHT22;32724;51.094;6.996;2023-05-07T02:07:22;13.80;99.90
46976;DHT22;32724;51.094;6.996;2023-05-07T02:09:47;13.80;99.90
46976;DHT22;32724;51.094;6.996;2023-05-07T02:12:13;13.80;99.90
46976;DHT22;32724;51.094;6.996;2023-05-07T02:14:38;13.80;99.90
46976;DHT22;32724;51.094;6.996;2023-05-07T02:17:04;13.70;99.90
46976;DHT22;32724;51.094;6.996;2023-05-07T02:19:29;13.70;99.90
46976;DHT22;32724;51.094;6.996;2023-05-07T02:21:55;13.70;99.90
46976;DHT22;32724;51.094;6.996;2023-05-07T02:24:20;13.70;99.90
46976;DHT22;32724;51.094;6.996;2023-05-07T02:26:46;13.70;99.90
46976;DHT22;32724;51.094;6.996;2023-05-07T02:29:11;13.70;99.90
46976;DHT22;32724;51.094;6.996;2023-05-07T02:31:37;13.70;99.90
46976;DHT22;32724;51.094;6.996;2023-05-07T02:34:02;13.60;99.90
46976;DHT22;32724;51.094;6.996;2023-05-07T02:36:29;13.60;99.90
46976;DHT22;32724;51.094;6.996;2023-05-07T02:38:54;13.50;99.90
46976;DHT22;32724;51.094;6.996;2023-05-07T02:41:20;13.50;99.90
46976;DHT22;32724;51.094;6.996;2023-05-07T02:43:45;13.40;99.90
46976;DHT22;32724;51.094;6.996;2023-05-07T02:46:11;13.40;99.90
46976;DHT22;32724;51.094;6.996;2023-05-07T02:48:36;13.40;99.90
46976;DHT22;32724;51.094;6.996;2023-05-07T02:51:02;13.30;99.90
46976;DHT22;32724;51.094;6.996;2023-05-07T02:53:28;13.20;99.90
46976;DHT22;32724;51.094;6.996;2023-05-07T02:55:58;13.10;99.90
46976;DHT22;32724;51.094;6.996;2023-05-07T02:58:23;13.00;99.90
46976;DHT22;32724;51.094;6.996;2023-05-07T03:00:49;13.00;99.90
46976;DHT22;32724;51.094;6.996;2023-05-07T03:03:15;12.90;99.90
46976;DHT22;32724;51.094;6.996;2023-05-07T03:05:41;12.80;99.90
46976;DHT22;32724;51.094;6.996;2023-05-07T03:08:08;12.80;99.90
46976;DHT22;32724;51.094;6.996;2023-05-07T03:10:33;12.80;99.90
46976;DHT22;32724;51.094;6.996;2023-05-07T03:12:59;12.70;99.90
46976;DHT22;32724;51.094;6.996;2023-05-07T03:15:24;12.70;99.90
46976;DHT22;32724;51.094;6.996;2023-05-07T03:17:50;12.70;99.90
46976;DHT22;32724;51.094;6.996;2023-05-07T03:20:16;12.70;99.90
46976;DHT22;32724;51.094;6.996;2023-05-07T03:22:41;12.60;99.90
46976;DHT22;32724;51.094;6.996;2023-05-07T03:25:08;12.60;99.90
46976;DHT22;32724;51.094;6.996;2023-05-07T03:27:34;12.60;99.90
46976;DHT22;32724;51.094;6.996;2023-05-07T03:30:00;12.50;99.90
46976;DHT22;32724;51.094;6.996;2023-05-07T03:32:25;12.50;99.90
46976;DHT22;32724;51.094;6.996;2023-05-07T03:34:51;12.40;99.90
46976;DHT22;32724;51.094;6.996;2023-05-07T03:37:16;12.40;99.90
46976;DHT22;32724;51.094;6.996;2023-05-07T03:39:42;12.40;99.90
46976;DHT22;32724;51.094;6.996;2023-05-07T03:42:07;12.30;99.90
46976;DHT22;32724;51.094;6.996;2023-05-07T03:44:33;12.30;99.90
46976;DHT22;32724;51.094;6.996;2023-05-07T03:46:58;12.20;99.90
46976;DHT22;32724;51.094;6.996;2023-05-07T03:49:24;12.20;99.90
46976;DHT22;32724;51.094;6.996;2023-05-07T03:51:49;12.20;99.90
46976;DHT22;32724;51.094;6.996;2023-05-07T03:54:15;12.20;99.90
46976;DHT22;32724;51.094;6.996;2023-05-07T03:56:40;12.20;99.90
46976;DHT22;32724;51.094;6.996;2023-05-07T03:59:06;12.20;99.90
46976;DHT22;32724;51.094;6.996;2023-05-07T04:01:31;12.10;99.90
46976;DHT22;32724;51.094;6.996;2023-05-07T04:03:56;12.20;99.90
46976;DHT22;32724;51.094;6.996;2023-05-07T04:06:24;12.20;99.90
46976;DHT22;32724;51.094;6.996;2023-05-07T04:08:49;12.20;99.90
46976;DHT22;32724;51.094;6.996;2023-05-07T04:11:15;12.20;99.90
46976;DHT22;32724;51.094;6.996;2023-05-07T04:13:40;12.20;99.90
46976;DHT22;32724;51.094;6.996;2023-05-07T04:16:06;12.20;99.90
46976;DHT22;32724;51.094;6.996;2023-05-07T04:18:32;12.20;99.90
46976;DHT22;32724;51.094;6.996;2023-05-07T04:20:57;12.30;99.90
46976;DHT22;32724;51.094;6.996;2023-05-07T04:23:23;12.40;99.90
46976;DHT22;32724;51.094;6.996;2023-05-07T04:25:48;12.40;99.90
46976;DHT22;32724;51.094;6.996;2023-05-07T04:28:13;12.50;99.90
46976;DHT22;32724;51.094;6.996;2023-05-07T04:30:39;12.60;99.90
46976;DHT22;32724;51.094;6.996;2023-05-07T04:33:04;12.70;99.90
46976;DHT22;32724;51.094;6.996;2023-05-07T04:35:32;12.70;99.90
46976;DHT22;32724;51.094;6.996;2023-05-07T04:37:57;12.70;99.90
46976;DHT22;32724;51.094;6.996;2023-05-07T04:40:23;12.70;99.90
46976;DHT22;32724;51.094;6.996;2023-05-07T04:42:48;12.80;99.90
46976;DHT22;32724;51.094;6.996;2023-05-07T04:45:13;12.90;99.90
46976;DHT22;32724;51.094;6.996;2023-05-07T04:47:40;13.00;99.90
46976;DHT22;32724;51.094;6.996;2023-05-07T04:50:06;13.10;99.90
46976;DHT22;32724;51.094;6.996;2023-05-07T04:52:31;13.20;99.90
46976;DHT22;32724;51.094;6.996;2023-05-07T04:54:59;13.30;99.90
46976;DHT22;32724;51.094;6.996;2023-05-07T04:57:24;13.50;99.90
46976;DHT22;32724;51.094;6.996;2023-05-07T04:59:50;13.60;99.90
46976;DHT22;32724;51.094;6.996;2023-05-07T05:02:15;13.70;99.90
46976;DHT22;32724;51.094;6.996;2023-05-07T05:04:41;13.80;99.90
46976;DHT22;32724;51.094;6.996;2023-05-07T05:07:06;13.90;99.90
46976;DHT22;32724;51.094;6.996;2023-05-07T05:09:32;14.10;99.90
46976;DHT22;32724;51.094;6.996;2023-05-07T05:11:57;14.10;99.90
46976;DHT22;32724;51.094;6.996;2023-05-07T05:14:24;14.30;99.90
46976;DHT22;32724;51.094;6.996;2023-05-07T05:16:49;14.50;99.90
46976;DHT22;32724;51.094;6.996;2023-05-07T05:19:15;14.70;99.90
46976;DHT22;32724;51.094;6.996;2023-05-07T05:21:40;14.90;99.90
46976;DHT22;32724;51.094;6.996;2023-05-07T05:24:06;14.90;99.90
46976;DHT22;32724;51.094;6.996;2023-05-07T05:26:31;15.00;99.90
46976;DHT22;32724;51.094;6.996;2023-05-07T05:28:57;15.00;99.90
46976;DHT22;32724;51.094;6.996;2023-05-07T05:31:22;15.00;99.90
46976;DHT22;32724;51.094;6.996;2023-05-07T05:33:48;15.10;99.90
46976;DHT22;32724;51.094;6.996;2023-05-07T05:36:13;15.10;99.90
46976;DHT22;32724;51.094;6.996;2023-05-07T05:38:39;15.20;99.90
46976;DHT22;32724;51.094;6.996;2023-05-07T05:41:04;15.30;99.90
46976;DHT22;32724;51.094;6.996;2023-05-07T05:43:30;15.40;99.90
46976;DHT22;32724;51.094;6.996;2023-05-07T05:45:56;15.40;99.90
46976;DHT22;32724;51.094;6.996;2023-05-07T05:48:21;15.60;99.90
46976;DHT22;32724;51.094;6.996;2023-05-07T05:50:47;15.60;99.90
46976;DHT22;32724;51.094;6.996;2023-05-07T05:53:12;15.70;99.90
46976;DHT22;32724;51.094;6.996;2023-05-07T05:55:37;15.80;99.90
46976;DHT22;32724;51.094;6.996;2023-05-07T05:58:03;15.80;99.90
46976;DHT22;32724;51.094;6.996;2023-05-07T06:00:29;15.70;99.90
46976;DHT22;32724;51.094;6.996;2023-05-07T06:02:54;15.70;99.90
46976;DHT22;32724;51.094;6.996;2023-05-07T06:05:20;15.70;99.90
46976;DHT22;32724;51.094;6.996;2023-05-07T06:07:45;15.70;99.90
46976;DHT22;32724;51.094;6.996;2023-05-07T06:10:11;15.80;99.90
46976;DHT22;32724;51.094;6.996;2023-05-07T06:12:36;15.80;99.90
46976;DHT22;32724;51.094;6.996;2023-05-07T06:15:02;15.80;99.90
46976;DHT22;32724;51.094;6.996;2023-05-07T06:17:27;15.90;99.90
46976;DHT22;32724;51.094;6.996;2023-05-07T06:19:53;16.00;99.90
46976;DHT22;32724;51.094;6.996;2023-05-07T06:22:18;16.00;99.90
46976;DHT22;32724;51.094;6.996;2023-05-07T06:24:44;16.00;99.90
46976;DHT22;32724;51.094;6.996;2023-05-07T06:27:10;16.20;99.90
46976;DHT22;32724;51.094;6.996;2023-05-07T06:29:35;16.30;99.90
46976;DHT22;32724;51.094;6.996;2023-05-07T06:32:10;16.40;99.90
46976;DHT22;32724;51.094;6.996;2023-05-07T06:34:36;16.60;99.90
46976;DHT22;32724;51.094;6.996;2023-05-07T06:37:01;16.70;99.90
46976;DHT22;32724;51.094;6.996;2023-05-07T06:39:28;16.80;99.90
46976;DHT22;32724;51.094;6.996;2023-05-07T06:41:53;16.90;99.90
46976;DHT22;32724;51.094;6.996;2023-05-07T06:44:19;17.10;99.90
46976;DHT22;32724;51.094;6.996;2023-05-07T06:46:44;17.30;99.90
46976;DHT22;32724;51.094;6.996;2023-05-07T06:49:12;17.40;99.90
46976;DHT22;32724;51.094;6.996;2023-05-07T06:51:38;17.50;99.90
46976;DHT22;32724;51.094;6.996;2023-05-07T06:54:04;17.80;99.90
46976;DHT22;32724;51.094;6.996;2023-05-07T06:56:30;17.90;99.90
46976;DHT22;32724;51.094;6.996;2023-05-07T06:58:55;18.10;99.90
46976;DHT22;32724;51.094;6.996;2023-05-07T07:01:21;18.30;99.90
46976;DHT22;32724;51.094;6.996;2023-05-07T07:03:46;18.50;99.90
46976;DHT22;32724;51.094;6.996;2023-05-07T07:06:13;18.40;99.90
46976;DHT22;32724;51.094;6.996;2023-05-07T07:08:39;18.60;99.90
46976;DHT22;32724;51.094;6.996;2023-05-07T07:11:05;18.50;99.90
46976;DHT22;32724;51.094;6.996;2023-05-07T07:13:30;18.40;99.90
46976;DHT22;32724;51.094;6.996;2023-05-07T07:15:56;18.30;99.90
46976;DHT22;32724;51.094;6.996;2023-05-07T07:18:21;18.00;99.90
46976;DHT22;32724;51.094;6.996;2023-05-07T07:20:47;17.70;99.90
46976;DHT22;32724;51.094;6.996;2023-05-07T07:23:12;17.50;99.90
46976;DHT22;32724;51.094;6.996;2023-05-07T07:25:38;17.40;99.90
46976;DHT22;32724;51.094;6.996;2023-05-07T07:28:03;17.40;99.90
46976;DHT22;32724;51.094;6.996;2023-05-07T07:30:29;17.20;99.90
46976;DHT22;32724;51.094;6.996;2023-05-07T07:32:54;17.30;99.90
46976;DHT22;32724;51.094;6.996;2023-05-07T07:35:25;17.70;99.90
46976;DHT22;32724;51.094;6.996;2023-05-07T07:37:51;18.40;99.90
46976;DHT22;32724;51.094;6.996;2023-05-07T07:40:16;19.10;99.90
46976;DHT22;32724;51.094;6.996;2023-05-07T07:42:42;19.70;99.90
46976;DHT22;32724;51.094;6.996;2023-05-07T07:45:07;20.20;99.90
46976;DHT22;32724;51.094;6.996;2023-05-07T07:47:33;20.30;99.90
46976;DHT22;32724;51.094;6.996;2023-05-07T07:49:59;20.40;99.90
46976;DHT22;32724;51.094;6.996;2023-05-07T07:52:24;20.80;99.90
46976;DHT22;32724;51.094;6.996;2023-05-07T07:54:50;21.00;99.90
46976;DHT22;32724;51.094;6.996;2023-05-07T07:57:15;21.30;99.90
46976;DHT22;32724;51.094;6.996;2023-05-07T07:59:41;21.30;99.90
46976;DHT22;32724;51.094;6.996;2023-05-07T08:02:08;21.40;99.90
46976;DHT22;32724;51.094;6.996;2023-05-07T08:04:35;21.50;99.90
46976;DHT22;32724;51.094;6.996;2023-05-07T08:07:02;21.60;99.90
46976;DHT22;32724;51.094;6.996;2023-05-07T08:09:27;21.50;99.90
46976;DHT22;32724;51.094;6.996;2023-05-07T08:11:53;21.40;99.90
46976;DHT22;32724;51.094;6.996;2023-05-07T08:14:18;21.60;99.90
46976;DHT22;32724;51.094;6.996;2023-05-07T08:16:44;21.90;99.90
46976;DHT22;32724;51.094;6.996;2023-05-07T08:19:09;21.90;99.90
46976;DHT22;32724;51.094;6.996;2023-05-07T08:21:38;21.70;99.90
46976;DHT22;32724;51.094;6.996;2023-05-07T08:24:04;21.40;99.90
46976;DHT22;32724;51.094;6.996;2023-05-07T08:26:30;21.40;99.90
46976;DHT22;32724;51.094;6.996;2023-05-07T08:28:55;21.50;99.90
46976;DHT22;32724;51.094;6.996;2023-05-07T08:31:21;21.70;99.90
46976;DHT22;32724;51.094;6.996;2023-05-07T08:33:46;21.90;99.90
46976;DHT22;32724;51.094;6.996;2023-05-07T08:36:11;21.70;99.90
46976;DHT22;32724;51.094;6.996;2023-05-07T08:38:37;21.60;99.90
46976;DHT22;32724;51.094;6.996;2023-05-07T08:41:03;21.60;99.90
46976;DHT22;32724;51.094;6.996;2023-05-07T08:43:28;21.50;99.90
46976;DHT22;32724;51.094;6.996;2023-05-07T08:45:55;21.40;99.90
46976;DHT22;32724;51.094;6.996;2023-05-07T08:48:25;21.40;99.90
46976;DHT22;32724;51.094;6.996;2023-05-07T08:50:50;21.50;99.90
46976;DHT22;32724;51.094;6.996;2023-05-07T08:53:16;22.00;99.90
46976;DHT22;32724;51.094;6.996;2023-05-07T08:55:41;22.40;99.90
46976;DHT22;32724;51.094;6.996;2023-05-07T08:58:07;22.60;99.90
46976;DHT22;32724;51.094;6.996;2023-05-07T09:00:33;22.70;99.90
46976;DHT22;32724;51.094;6.996;2023-05-07T09:02:59;23.00;99.90
46976;DHT22;32724;51.094;6.996;2023-05-07T09:05:25;23.20;99.90
46976;DHT22;32724;51.094;6.996;2023-05-07T09:07:51;23.50;99.90
46976;DHT22;32724;51.094;6.996;2023-05-07T09:10:16;23.50;99.90
46976;DHT22;32724;51.094;6.996;2023-05-07T09:12:42;23.50;99.90
46976;DHT22;32724;51.094;6.996;2023-05-07T09:15:07;23.30;99.90
46976;DHT22;32724;51.094;6.996;2023-05-07T09:17:33;23.60;99.90
46976;DHT22;32724;51.094;6.996;2023-05-07T09:20:02;23.90;99.90
46976;DHT22;32724;51.094;6.996;2023-05-07T09:22:31;24.30;99.90
46976;DHT22;32724;51.094;6.996;2023-05-07T09:24:56;24.90;99.90
46976;DHT22;32724;51.094;6.996;2023-05-07T09:27:22;25.10;99.90
46976;DHT22;32724;51.094;6.996;2023-05-07T09:29:47;25.20;99.90
46976;DHT22;32724;51.094;6.996;2023-05-07T09:32:13;25.30;99.90
46976;DHT22;32724;51.094;6.996;2023-05-07T09:34:39;25.10;99.90
46976;DHT22;32724;51.094;6.996;2023-05-07T09:37:06;24.80;99.90
46976;DHT22;32724;51.094;6.996;2023-05-07T09:39:45;24.60;99.90
46976;DHT22;32724;51.094;6.996;2023-05-07T09:42:11;24.40;99.90
46976;DHT22;32724;51.094;6.996;2023-05-07T09:44:37;24.30;99.90
46976;DHT22;32724;51.094;6.996;2023-05-07T09:47:06;24.00;99.90
46976;DHT22;32724;51.094;6.996;2023-05-07T09:49:36;24.10;99.90
46976;DHT22;32724;51.094;6.996;2023-05-07T09:52:02;24.30;99.90
46976;DHT22;32724;51.094;6.996;2023-05-07T09:54:28;24.40;99.90
46976;DHT22;32724;51.094;6.996;2023-05-07T09:56:56;24.50;99.90
46976;DHT22;32724;51.094;6.996;2023-05-07T09:59:22;24.80;99.90
46976;DHT22;32724;51.094;6.996;2023-05-07T10:01:48;25.00;99.90
46976;DHT22;32724;51.094;6.996;2023-05-07T10:04:13;24.80;99.90
46976;DHT22;32724;51.094;6.996;2023-05-07T10:06:39;24.80;99.90
46976;DHT22;32724;51.094;6.996;2023-05-07T10:09:06;24.90;98.30
46976;DHT22;32724;51.094;6.996;2023-05-07T10:11:32;24.90;97.90
46976;DHT22;32724;51.094;6.996;2023-05-07T10:13:58;25.00;99.80
46976;DHT22;32724;51.094;6.996;2023-05-07T10:16:23;24.90;98.70
46976;DHT22;32724;51.094;6.996;2023-05-07T10:18:50;24.60;98.90
46976;DHT22;32724;51.094;6.996;2023-05-07T10:21:20;24.50;98.20
46976;DHT22;32724;51.094;6.996;2023-05-07T10:23:48;24.40;98.10
46976;DHT22;32724;51.094;6.996;2023-05-07T10:26:14;24.40;97.70
46976;DHT22;32724;51.094;6.996;2023-05-07T10:28:41;24.50;97.60
46976;DHT22;32724;51.094;6.996;2023-05-07T10:31:15;24.50;99.50
46976;DHT22;32724;51.094;6.996;2023-05-07T10:33:44;24.70;98.60
46976;DHT22;32724;51.094;6.996;2023-05-07T10:36:10;24.80;99.70
46976;DHT22;32724;51.094;6.996;2023-05-07T10:38:36;25.10;97.70
46976;DHT22;32724;51.094;6.996;2023-05-07T10:41:01;25.10;98.00
46976;DHT22;32724;51.094;6.996;2023-05-07T10:43:42;25.10;96.80
46976;DHT22;32724;51.094;6.996;2023-05-07T10:46:11;24.80;97.70
46976;DHT22;32724;51.094;6.996;2023-05-07T10:51:21;24.90;98.40
46976;DHT22;32724;51.094;6.996;2023-05-07T10:53:47;24.90;96.60
46976;DHT22;32724;51.094;6.996;2023-05-07T10:58:44;24.90;95.70
46976;DHT22;32724;51.094;6.996;2023-05-07T11:01:10;24.90;97.50
46976;DHT22;32724;51.094;6.996;2023-05-07T11:03:57;24.90;95.50
46976;DHT22;32724;51.094;6.996;2023-05-07T11:06:23;25.10;94.90
46976;DHT22;32724;51.094;6.996;2023-05-07T11:08:57;25.50;95.00
46976;DHT22;32724;51.094;6.996;2023-05-07T11:14:07;25.60;94.10
46976;DHT22;32724;51.094;6.996;2023-05-07T11:16:33;25.60;93.30
46976;DHT22;32724;51.094;6.996;2023-05-07T11:19:01;25.70;94.20
46976;DHT22;32724;51.094;6.996;2023-05-07T11:21:33;25.70;92.30
46976;DHT22;32724;51.094;6.996;2023-05-07T11:23:59;25.50;92.10
46976;DHT22;32724;51.094;6.996;2023-05-07T11:26:25;25.50;93.00
46976;DHT22;32724;51.094;6.996;2023-05-07T11:28:51;25.50;92.40
46976;DHT22;32724;51.094;6.996;2023-05-07T11:31:20;25.80;92.40
46976;DHT22;32724;51.094;6.996;2023-05-07T11:33:45;26.20;93.60
46976;DHT22;32724;51.094;6.996;2023-05-07T11:36:11;26.70;94.80
46976;DHT22;32724;51.094;6.996;2023-05-07T11:38:37;27.20;91.10
46976;DHT22;32724;51.094;6.996;2023-05-07T11:41:04;27.40;90.20
46976;DHT22;32724;51.094;6.996;2023-05-07T11:43:30;27.50;87.70
46976;DHT22;32724;51.094;6.996;2023-05-07T11:46:04;27.10;87.40
46976;DHT22;32724;51.094;6.996;2023-05-07T11:48:30;26.50;88.30
46976;DHT22;32724;51.094;6.996;2023-05-07T11:53:24;26.20;90.30
46976;DHT22;32724;51.094;6.996;2023-05-07T11:55:52;26.40;90.30
46976;DHT22;32724;51.094;6.996;2023-05-07T11:58:20;26.70;87.20
46976;DHT22;32724;51.094;6.996;2023-05-07T12:00:49;26.80;87.70
46976;DHT22;32724;51.094;6.996;2023-05-07T12:03:15;26.60;86.60
46976;DHT22;32724;51.094;6.996;2023-05-07T12:05:40;26.30;87.10
46976;DHT22;32724;51.094;6.996;2023-05-07T12:08:07;26.20;87.30
46976;DHT22;32724;51.094;6.996;2023-05-07T12:10:32;26.30;86.30
46976;DHT22;32724;51.094;6.996;2023-05-07T12:12:58;26.20;89.10
46976;DHT22;32724;51.094;6.996;2023-05-07T12:15:23;26.00;85.10
46976;DHT22;32724;51.094;6.996;2023-05-07T12:17:49;26.00;86.00
46976;DHT22;32724;51.094;6.996;2023-05-07T12:20:14;26.20;84.30
46976;DHT22;32724;51.094;6.996;2023-05-07T12:22:40;26.40;84.50
46976;DHT22;32724;51.094;6.996;2023-05-07T12:25:06;26.30;87.50
46976;DHT22;32724;51.094;6.996;2023-05-07T12:27:32;26.30;83.00
46976;DHT22;32724;51.094;6.996;2023-05-07T12:29:57;26.30;86.00
46976;DHT22;32724;51.094;6.996;2023-05-07T12:32:24;26.30;86.30
46976;DHT22;32724;51.094;6.996;2023-05-07T12:34:50;26.20;85.30
46976;DHT22;32724;51.094;6.996;2023-05-07T12:37:15;26.20;85.90
46976;DHT22;32724;51.094;6.996;2023-05-07T12:39:44;26.10;88.60
46976;DHT22;32724;51.094;6.996;2023-05-07T12:42:14;26.40;86.70
46976;DHT22;32724;51.094;6.996;2023-05-07T12:44:40;26.70;84.20
46976;DHT22;32724;51.094;6.996;2023-05-07T12:47:05;26.90;81.40
46976;DHT22;32724;51.094;6.996;2023-05-07T12:49:31;27.00;79.20
46976;DHT22;32724;51.094;6.996;2023-05-07T12:51:56;26.80;81.80
46976;DHT22;32724;51.094;6.996;2023-05-07T12:54:55;26.70;82.40
46976;DHT22;32724;51.094;6.996;2023-05-07T12:57:13;26.50;84.70
46976;DHT22;32724;51.094;6.996;2023-05-07T12:59:39;26.30;84.20
46976;DHT22;32724;51.094;6.996;2023-05-07T13:02:05;26.10;86.10
46976;DHT22;32724;51.094;6.996;2023-05-07T13:04:31;25.90;85.00
46976;DHT22;32724;51.094;6.996;2023-05-07T13:06:56;25.90;87.80
46976;DHT22;32724;51.094;6.996;2023-05-07T13:09:22;25.90;84.80
46976;DHT22;32724;51.094;6.996;2023-05-07T13:11:47;25.90;83.00
46976;DHT22;32724;51.094;6.996;2023-05-07T13:14:13;25.90;83.00
46976;DHT22;32724;51.094;6.996;2023-05-07T13:16:38;25.50;81.10
46976;DHT22;32724;51.094;6.996;2023-05-07T13:19:04;25.50;84.70
46976;DHT22;32724;51.094;6.996;2023-05-07T13:21:29;25.40;86.50
46976;DHT22;32724;51.094;6.996;2023-05-07T13:23:57;25.40;86.60
46976;DHT22;32724;51.094;6.996;2023-05-07T13:26:23;25.60;84.60
46976;DHT22;32724;51.094;6.996;2023-05-07T13:28:49;25.80;87.10
46976;DHT22;32724;51.094;6.996;2023-05-07T13:31:14;25.70;87.20
46976;DHT22;32724;51.094;6.996;2023-05-07T13:33:39;25.50;86.70
46976;DHT22;32724;51.094;6.996;2023-05-07T13:36:05;25.20;90.10
46976;DHT22;32724;51.094;6.996;2023-05-07T13:38:30;24.50;89.20
46976;DHT22;32724;51.094;6.996;2023-05-07T13:40:56;24.00;92.30
46976;DHT22;32724;51.094;6.996;2023-05-07T13:43:21;23.50;93.80
46976;DHT22;32724;51.094;6.996;2023-05-07T13:45:47;23.30;94.60
46976;DHT22;32724;51.094;6.996;2023-05-07T13:48:12;23.20;96.20
46976;DHT22;32724;51.094;6.996;2023-05-07T13:50:38;23.10;95.80
46976;DHT22;32724;51.094;6.996;2023-05-07T13:53:03;23.10;96.00
46976;DHT22;32724;51.094;6.996;2023-05-07T13:55:29;23.10;96.20
46976;DHT22;32724;51.094;6.996;2023-05-07T13:57:55;23.20;96.40
46976;DHT22;32724;51.094;6.996;2023-05-07T14:00:22;23.30;97.00
46976;DHT22;32724;51.094;6.996;2023-05-07T14:02:48;23.40;97.10
46976;DHT22;32724;51.094;6.996;2023-05-07T14:05:13;23.60;97.30
46976;DHT22;32724;51.094;6.996;2023-05-07T14:07:39;23.50;97.30
46976;DHT22;32724;51.094;6.996;2023-05-07T14:10:04;23.40;98.00
46976;DHT22;32724;51.094;6.996;2023-05-07T14:12:31;23.00;99.00
46976;DHT22;32724;51.094;6.996;2023-05-07T14:14:57;22.30;99.90
46976;DHT22;32724;51.094;6.996;2023-05-07T14:17:22;21.80;99.90
46976;DHT22;32724;51.094;6.996;2023-05-07T14:19:50;21.70;99.90
46976;DHT22;32724;51.094;6.996;2023-05-07T14:22:15;21.50;99.90
46976;DHT22;32724;51.094;6.996;2023-05-07T14:24:41;21.60;99.90
46976;DHT22;32724;51.094;6.996;2023-05-07T14:27:06;21.60;99.90
46976;DHT22;32724;51.094;6.996;2023-05-07T14:29:32;21.80;99.90
46976;DHT22;32724;51.094;6.996;2023-05-07T14:31:57;21.90;99.90
46976;DHT22;32724;51.094;6.996;2023-05-07T14:34:23;22.00;99.90
46976;DHT22;32724;51.094;6.996;2023-05-07T14:36:48;21.90;99.90
46976;DHT22;32724;51.094;6.996;2023-05-07T14:39:14;21.70;99.90
46976;DHT22;32724;51.094;6.996;2023-05-07T14:41:39;21.40;99.90
46976;DHT22;32724;51.094;6.996;2023-05-07T14:44:05;21.00;99.90
46976;DHT22;32724;51.094;6.996;2023-05-07T14:46:30;20.70;99.90
46976;DHT22;32724;51.094;6.996;2023-05-07T14:48:56;20.40;99.90
46976;DHT22;32724;51.094;6.996;2023-05-07T14:51:22;20.10;99.90
46976;DHT22;32724;51.094;6.996;2023-05-07T14:53:49;19.80;99.90
46976;DHT22;32724;51.094;6.996;2023-05-07T14:56:15;19.60;99.90
46976;DHT22;32724;51.094;6.996;2023-05-07T14:58:40;19.50;99.90
46976;DHT22;32724;51.094;6.996;2023-05-07T15:01:06;19.60;99.90
46976;DHT22;32724;51.094;6.996;2023-05-07T15:03:31;19.70;99.90
46976;DHT22;32724;51.094;6.996;2023-05-07T15:05:57;19.80;99.90
46976;DHT22;32724;51.094;6.996;2023-05-07T15:08:22;19.80;99.90
46976;DHT22;32724;51.094;6.996;2023-05-07T15:10:48;19.10;99.90
46976;DHT22;32724;51.094;6.996;2023-05-07T15:13:13;18.20;99.90
46976;DHT22;32724;51.094;6.996;2023-05-07T15:15:39;17.70;99.90
46976;DHT22;32724;51.094;6.996;2023-05-07T15:18:05;17.40;99.90
46976;DHT22;32724;51.094;6.996;2023-05-07T15:20:30;17.20;99.90
46976;DHT22;32724;51.094;6.996;2023-05-07T15:22:56;17.10;99.90
46976;DHT22;32724;51.094;6.996;2023-05-07T15:25:22;17.10;99.90
46976;DHT22;32724;51.094;6.996;2023-05-07T15:27:47;17.10;99.90
46976;DHT22;32724;51.094;6.996;2023-05-07T15:30:13;17.30;99.90
46976;DHT22;32724;51.094;6.996;2023-05-07T15:32:39;17.20;99.90